Hub


Voltar

 INFORMAÇÕES METEOROLÓGICAS

METAR FOR LTAC


ADDS - METARS form results

(1902 UTC 23 April 2019)
Data provider http://aviationweather.gov/metar/data/
 
METAR text: LTAC 231850Z 09003KT CAVOK 09/M02 Q1027 NOSIG RMK RWY21L 10006KT RWY03L 09003KT RWY21R 10003KT 030V140
Conditions at: LTAC (ANKARA/ESENBOGA , TR) observed 1850 UTC 23 April 2019
Temperature: 9.0°C (48°F)
Dewpoint: -2.0°C (28°F) [RH = 46%]
Pressure (altimeter): 30.32 inches Hg (1027.0 mb)
Winds: from the E (90 degrees) at 3 MPH (3 knots; 1.5 m/s)
Visibility: 6 or more miles (10+ km)
Ceiling: ceiling and visibility are OK
Clouds: unknown
Weather: no significant weather observed at this time

METAR text: LTAC 231820Z 06004KT CAVOK 09/M04 Q1026 NOSIG RMK RWY21L 12005KT RWY03L 07004KT RWY21R 11004KT 090V150
Conditions at: LTAC (ANKARA/ESENBOGA , TR) observed 1820 UTC 23 April 2019
Temperature: 9.0°C (48°F)
Dewpoint: -4.0°C (25°F) [RH = 40%]
Pressure (altimeter): 30.30 inches Hg (1026.0 mb)
Winds: from the ENE (60 degrees) at 5 MPH (4 knots; 2.1 m/s)
Visibility: 6 or more miles (10+ km)
Ceiling: ceiling and visibility are OK
Clouds: unknown
Weather: no significant weather observed at this time

Forecast for: LTAC (ANKARA/ESENBOGA , TR)
Text: TAF LTAC 231640Z 2318/2418 VRB02KT CAVOK
Forecast period: 1800 UTC 23 April 2019 to 0300 UTC 24 April 2019
Forecast type: FROM: standard forecast or significant change
Winds: variable direction winds at 2 MPH (2 knots; 1.0 m/s)
Visibility: 6 or more miles 10+ km)
Ceiling: unknown
Clouds: missing
Weather: NSW  (no significant weather)
Text: BECMG 2403/2406 SCT040
Forecast period: 0300 to 1800 UTC 24 April 2019
Forecast type: BECOMING: Conditions expected to become as follows by 0600 UTC 24 April 2019
Winds: variable direction winds at 2 MPH (2 knots; 1.0 m/s)
Visibility: 6 or more miles 10+ km)
Ceiling: at least 12,000 feet AGL
Clouds: scattered clouds at 4000 feet AGL
Weather: NSW  (no significant weather)


 MAPA DO AEROPORTO


 INFORMAÇÕES DA PISTA

Pista 03L Tamanho da pista 12303 ft Largura da pista 148 ft
Elevação da pista 3100 ft Ranhura da pista 1148 ft Proa da pista 36
Pista 21R Tamanho da pista 12303 ft Largura da pista 148 ft
Elevação da pista 3123 ft Ranhura da pista 0 ft Proa da pista 216
Pista 03R Tamanho da pista 12303 ft Largura da pista 197 ft
Elevação da pista 3097 ft Ranhura da pista 0 ft Proa da pista 35
Pista 21L Tamanho da pista 12303 ft Largura da pista 197 ft
Elevação da pista 3125 ft Ranhura da pista 0 ft Proa da pista 215

 FREQUÊNCIAS DO AEROPORTO

Tipo APP Nome APP Frequência 119.1 MHZ
Tipo ATIS Nome ATIS Frequência 123.6 MHZ
Tipo GND Nome GND Frequência 121.9 MHZ
Tipo TWR Nome TWR Frequência 118.1 MHZ

 AUXÍLIOS DE NAVEGAÇÃO PRÓXIMOS AO AEROPORTO

Tipo VOR-DME Nome Cubuk Frequência 114300 KHZ